sensor_id;sensor_type;location;lat;lon;timestamp;P1;durP1;ratioP1;P2;durP2;ratioP2
27746;SDS011;15138;51.012;4.692;2023-07-16T00:02:16;8.35;;;1.60;;
27746;SDS011;15138;51.012;4.692;2023-07-16T00:04:44;7.93;;;1.90;;
27746;SDS011;15138;51.012;4.692;2023-07-16T00:07:12;6.82;;;1.67;;
27746;SDS011;15138;51.012;4.692;2023-07-16T00:09:41;12.68;;;2.13;;
27746;SDS011;15138;51.012;4.692;2023-07-16T00:12:09;4.63;;;1.60;;
27746;SDS011;15138;51.012;4.692;2023-07-16T00:14:37;4.40;;;1.50;;
27746;SDS011;15138;51.012;4.692;2023-07-16T00:17:06;7.03;;;1.90;;
27746;SDS011;15138;51.012;4.692;2023-07-16T00:19:34;7.93;;;2.05;;
27746;SDS011;15138;51.012;4.692;2023-07-16T00:22:03;4.60;;;1.58;;
27746;SDS011;15138;51.012;4.692;2023-07-16T00:24:31;7.78;;;1.85;;
27746;SDS011;15138;51.012;4.692;2023-07-16T00:26:59;4.72;;;1.55;;
27746;SDS011;15138;51.012;4.692;2023-07-16T00:29:27;5.03;;;1.92;;
27746;SDS011;15138;51.012;4.692;2023-07-16T00:31:56;4.82;;;1.70;;
27746;SDS011;15138;51.012;4.692;2023-07-16T00:34:25;9.00;;;2.22;;
27746;SDS011;15138;51.012;4.692;2023-07-16T00:36:53;14.30;;;2.65;;
27746;SDS011;15138;51.012;4.692;2023-07-16T00:39:28;10.88;;;2.40;;
27746;SDS011;15138;51.012;4.692;2023-07-16T00:41:56;8.32;;;2.10;;
27746;SDS011;15138;51.012;4.692;2023-07-16T00:44:24;9.48;;;2.00;;
27746;SDS011;15138;51.012;4.692;2023-07-16T00:46:52;6.85;;;1.90;;
27746;SDS011;15138;51.012;4.692;2023-07-16T00:49:21;11.15;;;2.00;;
27746;SDS011;15138;51.012;4.692;2023-07-16T00:51:50;11.93;;;2.33;;
27746;SDS011;15138;51.012;4.692;2023-07-16T00:54:20;8.43;;;2.25;;
27746;SDS011;15138;51.012;4.692;2023-07-16T00:56:48;11.63;;;2.45;;
27746;SDS011;15138;51.012;4.692;2023-07-16T00:59:17;11.48;;;2.13;;
27746;SDS011;15138;51.012;4.692;2023-07-16T01:01:45;10.00;;;2.25;;
27746;SDS011;15138;51.012;4.692;2023-07-16T01:04:13;9.20;;;2.20;;
27746;SDS011;15138;51.012;4.692;2023-07-16T01:06:43;9.63;;;2.20;;
27746;SDS011;15138;51.012;4.692;2023-07-16T01:09:17;9.63;;;2.65;;
27746;SDS011;15138;51.012;4.692;2023-07-16T01:11:47;9.48;;;2.30;;
27746;SDS011;15138;51.012;4.692;2023-07-16T01:14:16;15.50;;;2.22;;
27746;SDS011;15138;51.012;4.692;2023-07-16T01:16:45;17.35;;;2.40;;
27746;SDS011;15138;51.012;4.692;2023-07-16T01:19:13;12.85;;;2.33;;
27746;SDS011;15138;51.012;4.692;2023-07-16T01:21:43;12.38;;;2.40;;
27746;SDS011;15138;51.012;4.692;2023-07-16T01:30:17;10.98;;;2.30;;
27746;SDS011;15138;51.012;4.692;2023-07-16T01:32:47;14.68;;;2.33;;
27746;SDS011;15138;51.012;4.692;2023-07-16T01:35:17;14.15;;;2.50;;
27746;SDS011;15138;51.012;4.692;2023-07-16T01:37:45;11.70;;;2.88;;
27746;SDS011;15138;51.012;4.692;2023-07-16T01:40:13;8.32;;;2.03;;
27746;SDS011;15138;51.012;4.692;2023-07-16T01:42:42;11.23;;;2.75;;
27746;SDS011;15138;51.012;4.692;2023-07-16T01:45:10;10.57;;;2.58;;
27746;SDS011;15138;51.012;4.692;2023-07-16T01:47:44;13.57;;;2.30;;
27746;SDS011;15138;51.012;4.692;2023-07-16T01:50:14;13.55;;;2.50;;
27746;SDS011;15138;51.012;4.692;2023-07-16T01:52:42;13.00;;;3.15;;
27746;SDS011;15138;51.012;4.692;2023-07-16T01:55:11;13.18;;;2.65;;
27746;SDS011;15138;51.012;4.692;2023-07-16T01:57:39;9.88;;;2.83;;
27746;SDS011;15138;51.012;4.692;2023-07-16T02:00:07;16.63;;;3.05;;
27746;SDS011;15138;51.012;4.692;2023-07-16T02:02:36;13.68;;;2.88;;
27746;SDS011;15138;51.012;4.692;2023-07-16T02:05:06;12.70;;;3.22;;
27746;SDS011;15138;51.012;4.692;2023-07-16T02:07:35;12.40;;;2.95;;
27746;SDS011;15138;51.012;4.692;2023-07-16T02:10:03;11.90;;;2.83;;
27746;SDS011;15138;51.012;4.692;2023-07-16T02:12:32;11.65;;;3.35;;
27746;SDS011;15138;51.012;4.692;2023-07-16T02:15:00;12.48;;;2.63;;
27746;SDS011;15138;51.012;4.692;2023-07-16T02:17:28;10.32;;;2.63;;
27746;SDS011;15138;51.012;4.692;2023-07-16T02:19:56;17.05;;;3.28;;
27746;SDS011;15138;51.012;4.692;2023-07-16T02:22:26;11.15;;;3.10;;
27746;SDS011;15138;51.012;4.692;2023-07-16T02:24:54;9.52;;;2.92;;
27746;SDS011;15138;51.012;4.692;2023-07-16T02:27:23;10.43;;;2.97;;
27746;SDS011;15138;51.012;4.692;2023-07-16T02:29:51;11.73;;;2.97;;
27746;SDS011;15138;51.012;4.692;2023-07-16T02:32:19;8.68;;;2.67;;
27746;SDS011;15138;51.012;4.692;2023-07-16T02:34:47;7.85;;;2.55;;
27746;SDS011;15138;51.012;4.692;2023-07-16T02:37:15;12.20;;;2.70;;
27746;SDS011;15138;51.012;4.692;2023-07-16T02:39:45;14.02;;;3.28;;
27746;SDS011;15138;51.012;4.692;2023-07-16T02:42:14;12.40;;;2.85;;
27746;SDS011;15138;51.012;4.692;2023-07-16T02:44:42;8.55;;;2.65;;
27746;SDS011;15138;51.012;4.692;2023-07-16T02:47:11;14.40;;;2.90;;
27746;SDS011;15138;51.012;4.692;2023-07-16T02:49:39;14.85;;;3.10;;
27746;SDS011;15138;51.012;4.692;2023-07-16T02:52:07;13.18;;;2.97;;
27746;SDS011;15138;51.012;4.692;2023-07-16T02:54:35;12.35;;;3.00;;
27746;SDS011;15138;51.012;4.692;2023-07-16T02:57:05;15.38;;;3.97;;
27746;SDS011;15138;51.012;4.692;2023-07-16T02:59:33;8.48;;;2.80;;
27746;SDS011;15138;51.012;4.692;2023-07-16T03:02:02;11.20;;;3.50;;
27746;SDS011;15138;51.012;4.692;2023-07-16T03:04:30;11.60;;;3.38;;
27746;SDS011;15138;51.012;4.692;2023-07-16T03:06:58;10.10;;;3.78;;
27746;SDS011;15138;51.012;4.692;2023-07-16T03:09:27;9.07;;;3.22;;
27746;SDS011;15138;51.012;4.692;2023-07-16T03:11:55;13.32;;;4.28;;
27746;SDS011;15138;51.012;4.692;2023-07-16T03:14:24;10.73;;;4.00;;
27746;SDS011;15138;51.012;4.692;2023-07-16T03:16:52;14.27;;;3.88;;
27746;SDS011;15138;51.012;4.692;2023-07-16T03:19:21;13.75;;;3.47;;
27746;SDS011;15138;51.012;4.692;2023-07-16T03:21:49;11.02;;;3.28;;
27746;SDS011;15138;51.012;4.692;2023-07-16T03:24:17;11.57;;;4.10;;
27746;SDS011;15138;51.012;4.692;2023-07-16T03:26:45;10.02;;;3.38;;
27746;SDS011;15138;51.012;4.692;2023-07-16T03:29:13;14.07;;;4.55;;
27746;SDS011;15138;51.012;4.692;2023-07-16T03:31:43;14.18;;;5.03;;
27746;SDS011;15138;51.012;4.692;2023-07-16T03:34:11;13.63;;;4.75;;
27746;SDS011;15138;51.012;4.692;2023-07-16T03:36:39;9.93;;;4.10;;
27746;SDS011;15138;51.012;4.692;2023-07-16T03:39:07;10.75;;;4.30;;
27746;SDS011;15138;51.012;4.692;2023-07-16T03:41:35;15.02;;;4.45;;
27746;SDS011;15138;51.012;4.692;2023-07-16T03:44:04;11.65;;;4.40;;
27746;SDS011;15138;51.012;4.692;2023-07-16T03:46:32;11.25;;;4.43;;
27746;SDS011;15138;51.012;4.692;2023-07-16T03:49:01;16.08;;;4.47;;
27746;SDS011;15138;51.012;4.692;2023-07-16T03:51:30;10.88;;;3.90;;
27746;SDS011;15138;51.012;4.692;2023-07-16T03:53:58;13.45;;;4.53;;
27746;SDS011;15138;51.012;4.692;2023-07-16T03:56:26;13.02;;;4.63;;
27746;SDS011;15138;51.012;4.692;2023-07-16T03:58:54;12.35;;;4.40;;
27746;SDS011;15138;51.012;4.692;2023-07-16T04:01:22;13.13;;;4.28;;
27746;SDS011;15138;51.012;4.692;2023-07-16T04:03:51;15.90;;;4.30;;
27746;SDS011;15138;51.012;4.692;2023-07-16T04:06:20;13.20;;;4.65;;
27746;SDS011;15138;51.012;4.692;2023-07-16T04:08:48;13.38;;;4.45;;
27746;SDS011;15138;51.012;4.692;2023-07-16T04:11:17;11.93;;;4.43;;
27746;SDS011;15138;51.012;4.692;2023-07-16T04:13:45;8.75;;;3.95;;
27746;SDS011;15138;51.012;4.692;2023-07-16T04:16:13;15.23;;;4.30;;
27746;SDS011;15138;51.012;4.692;2023-07-16T04:18:41;11.02;;;4.78;;
27746;SDS011;15138;51.012;4.692;2023-07-16T04:21:10;11.75;;;4.10;;
27746;SDS011;15138;51.012;4.692;2023-07-16T04:23:39;16.35;;;4.85;;
27746;SDS011;15138;51.012;4.692;2023-07-16T04:26:07;12.05;;;4.63;;
27746;SDS011;15138;51.012;4.692;2023-07-16T04:28:35;16.80;;;5.50;;
27746;SDS011;15138;51.012;4.692;2023-07-16T04:31:05;18.58;;;5.22;;
27746;SDS011;15138;51.012;4.692;2023-07-16T04:33:33;12.93;;;4.63;;
27746;SDS011;15138;51.012;4.692;2023-07-16T04:36:02;13.25;;;4.47;;
27746;SDS011;15138;51.012;4.692;2023-07-16T04:38:30;16.70;;;5.10;;
27746;SDS011;15138;51.012;4.692;2023-07-16T04:41:00;14.18;;;4.57;;
27746;SDS011;15138;51.012;4.692;2023-07-16T04:43:28;12.45;;;5.28;;
27746;SDS011;15138;51.012;4.692;2023-07-16T04:45:56;14.13;;;4.63;;
27746;SDS011;15138;51.012;4.692;2023-07-16T04:48:24;12.20;;;4.78;;
27746;SDS011;15138;51.012;4.692;2023-07-16T04:50:53;14.98;;;5.15;;
27746;SDS011;15138;51.012;4.692;2023-07-16T04:53:21;15.70;;;4.85;;
27746;SDS011;15138;51.012;4.692;2023-07-16T04:55:50;13.73;;;5.60;;
27746;SDS011;15138;51.012;4.692;2023-07-16T04:58:19;11.07;;;5.32;;
27746;SDS011;15138;51.012;4.692;2023-07-16T05:00:47;11.18;;;4.75;;
27746;SDS011;15138;51.012;4.692;2023-07-16T05:03:15;14.05;;;5.57;;
27746;SDS011;15138;51.012;4.692;2023-07-16T05:05:44;13.68;;;5.18;;
27746;SDS011;15138;51.012;4.692;2023-07-16T05:08:12;15.82;;;5.13;;
27746;SDS011;15138;51.012;4.692;2023-07-16T05:10:40;13.50;;;5.07;;
27746;SDS011;15138;51.012;4.692;2023-07-16T05:13:08;10.85;;;4.85;;
27746;SDS011;15138;51.012;4.692;2023-07-16T05:15:38;13.88;;;5.25;;
27746;SDS011;15138;51.012;4.692;2023-07-16T05:18:06;16.58;;;5.78;;
27746;SDS011;15138;51.012;4.692;2023-07-16T05:20:34;16.95;;;5.80;;
27746;SDS011;15138;51.012;4.692;2023-07-16T05:23:02;16.05;;;5.53;;
27746;SDS011;15138;51.012;4.692;2023-07-16T05:25:31;14.80;;;5.25;;
27746;SDS011;15138;51.012;4.692;2023-07-16T05:27:59;17.58;;;6.22;;
27746;SDS011;15138;51.012;4.692;2023-07-16T05:30:27;14.18;;;6.07;;
27746;SDS011;15138;51.012;4.692;2023-07-16T05:32:57;15.68;;;5.75;;
27746;SDS011;15138;51.012;4.692;2023-07-16T05:35:25;12.00;;;5.57;;
27746;SDS011;15138;51.012;4.692;2023-07-16T05:37:53;16.70;;;6.47;;
27746;SDS011;15138;51.012;4.692;2023-07-16T05:40:21;22.08;;;6.15;;
27746;SDS011;15138;51.012;4.692;2023-07-16T05:42:49;17.27;;;6.00;;
27746;SDS011;15138;51.012;4.692;2023-07-16T05:45:17;12.95;;;5.45;;
27746;SDS011;15138;51.012;4.692;2023-07-16T05:47:46;19.73;;;6.88;;
27746;SDS011;15138;51.012;4.692;2023-07-16T05:50:15;16.98;;;6.20;;
27746;SDS011;15138;51.012;4.692;2023-07-16T05:52:44;15.30;;;5.70;;
27746;SDS011;15138;51.012;4.692;2023-07-16T05:55:14;14.30;;;5.53;;
27746;SDS011;15138;51.012;4.692;2023-07-16T05:57:42;14.48;;;6.30;;
27746;SDS011;15138;51.012;4.692;2023-07-16T06:00:11;16.95;;;6.13;;
27746;SDS011;15138;51.012;4.692;2023-07-16T06:02:39;17.98;;;6.38;;
27746;SDS011;15138;51.012;4.692;2023-07-16T06:05:08;15.05;;;6.40;;
27746;SDS011;15138;51.012;4.692;2023-07-16T06:07:38;18.30;;;6.53;;
27746;SDS011;15138;51.012;4.692;2023-07-16T06:10:06;15.23;;;6.47;;
27746;SDS011;15138;51.012;4.692;2023-07-16T06:12:35;16.20;;;7.28;;
27746;SDS011;15138;51.012;4.692;2023-07-16T06:15:04;16.38;;;7.15;;
27746;SDS011;15138;51.012;4.692;2023-07-16T06:17:33;12.20;;;6.03;;
27746;SDS011;15138;51.012;4.692;2023-07-16T06:20:01;14.65;;;6.05;;
27746;SDS011;15138;51.012;4.692;2023-07-16T06:22:30;21.33;;;6.80;;
27746;SDS011;15138;51.012;4.692;2023-07-16T06:25:00;14.13;;;5.95;;
27746;SDS011;15138;51.012;4.692;2023-07-16T06:27:28;19.70;;;6.68;;
27746;SDS011;15138;51.012;4.692;2023-07-16T06:29:56;14.27;;;6.57;;
27746;SDS011;15138;51.012;4.692;2023-07-16T06:32:24;18.25;;;6.40;;
27746;SDS011;15138;51.012;4.692;2023-07-16T06:34:52;20.98;;;6.70;;
27746;SDS011;15138;51.012;4.692;2023-07-16T06:37:21;17.50;;;6.47;;
27746;SDS011;15138;51.012;4.692;2023-07-16T06:39:50;18.85;;;6.80;;
27746;SDS011;15138;51.012;4.692;2023-07-16T06:42:19;16.15;;;6.75;;
27746;SDS011;15138;51.012;4.692;2023-07-16T06:44:48;16.75;;;6.50;;
27746;SDS011;15138;51.012;4.692;2023-07-16T06:47:16;12.57;;;6.05;;
27746;SDS011;15138;51.012;4.692;2023-07-16T06:49:44;16.33;;;6.78;;
27746;SDS011;15138;51.012;4.692;2023-07-16T06:52:22;16.58;;;7.10;;
27746;SDS011;15138;51.012;4.692;2023-07-16T06:54:53;17.30;;;6.50;;
27746;SDS011;15138;51.012;4.692;2023-07-16T06:57:23;21.45;;;7.65;;
27746;SDS011;15138;51.012;4.692;2023-07-16T06:59:51;17.00;;;6.75;;
27746;SDS011;15138;51.012;4.692;2023-07-16T07:02:20;17.42;;;6.82;;
27746;SDS011;15138;51.012;4.692;2023-07-16T07:04:48;16.42;;;6.75;;
27746;SDS011;15138;51.012;4.692;2023-07-16T07:07:16;14.73;;;5.95;;
27746;SDS011;15138;51.012;4.692;2023-07-16T07:09:46;16.95;;;6.68;;
27746;SDS011;15138;51.012;4.692;2023-07-16T07:12:15;18.73;;;7.13;;
27746;SDS011;15138;51.012;4.692;2023-07-16T07:14:46;17.42;;;6.15;;
27746;SDS011;15138;51.012;4.692;2023-07-16T07:17:14;12.25;;;5.75;;
27746;SDS011;15138;51.012;4.692;2023-07-16T07:19:45;18.30;;;7.07;;
27746;SDS011;15138;51.012;4.692;2023-07-16T07:22:14;20.15;;;6.13;;
27746;SDS011;15138;51.012;4.692;2023-07-16T07:24:42;16.75;;;6.03;;
27746;SDS011;15138;51.012;4.692;2023-07-16T07:27:11;18.25;;;6.95;;
27746;SDS011;15138;51.012;4.692;2023-07-16T07:29:39;14.15;;;6.85;;
27746;SDS011;15138;51.012;4.692;2023-07-16T07:32:11;20.08;;;7.05;;
27746;SDS011;15138;51.012;4.692;2023-07-16T07:34:40;13.52;;;6.28;;
27746;SDS011;15138;51.012;4.692;2023-07-16T07:37:08;15.63;;;5.72;;
27746;SDS011;15138;51.012;4.692;2023-07-16T07:39:36;15.73;;;6.22;;
27746;SDS011;15138;51.012;4.692;2023-07-16T07:42:05;17.85;;;6.43;;
27746;SDS011;15138;51.012;4.692;2023-07-16T07:44:33;12.73;;;6.15;;
27746;SDS011;15138;51.012;4.692;2023-07-16T07:47:02;18.83;;;6.50;;
27746;SDS011;15138;51.012;4.692;2023-07-16T07:49:32;15.50;;;6.80;;
27746;SDS011;15138;51.012;4.692;2023-07-16T07:52:00;15.25;;;6.28;;
27746;SDS011;15138;51.012;4.692;2023-07-16T07:54:31;11.85;;;6.18;;
27746;SDS011;15138;51.012;4.692;2023-07-16T07:57:00;18.13;;;6.68;;
27746;SDS011;15138;51.012;4.692;2023-07-16T07:59:31;14.38;;;5.47;;
27746;SDS011;15138;51.012;4.692;2023-07-16T08:02:00;17.35;;;6.50;;
27746;SDS011;15138;51.012;4.692;2023-07-16T08:04:29;19.08;;;6.70;;
27746;SDS011;15138;51.012;4.692;2023-07-16T08:07:00;16.38;;;6.10;;
27746;SDS011;15138;51.012;4.692;2023-07-16T08:09:28;15.48;;;6.40;;
27746;SDS011;15138;51.012;4.692;2023-07-16T08:11:57;15.25;;;5.88;;
27746;SDS011;15138;51.012;4.692;2023-07-16T08:14:25;17.75;;;6.47;;
27746;SDS011;15138;51.012;4.692;2023-07-16T08:16:53;14.82;;;5.65;;
27746;SDS011;15138;51.012;4.692;2023-07-16T08:19:22;16.73;;;6.45;;
27746;SDS011;15138;51.012;4.692;2023-07-16T08:21:50;11.90;;;5.57;;
27746;SDS011;15138;51.012;4.692;2023-07-16T08:24:19;15.77;;;6.15;;
27746;SDS011;15138;51.012;4.692;2023-07-16T08:26:47;15.77;;;6.32;;
27746;SDS011;15138;51.012;4.692;2023-07-16T08:29:18;15.02;;;6.05;;
27746;SDS011;15138;51.012;4.692;2023-07-16T08:31:46;12.57;;;6.28;;
27746;SDS011;15138;51.012;4.692;2023-07-16T08:34:14;21.15;;;5.95;;
27746;SDS011;15138;51.012;4.692;2023-07-16T08:36:43;14.60;;;6.10;;
27746;SDS011;15138;51.012;4.692;2023-07-16T08:39:11;14.73;;;5.75;;
27746;SDS011;15138;51.012;4.692;2023-07-16T08:41:40;16.10;;;5.90;;
27746;SDS011;15138;51.012;4.692;2023-07-16T08:44:09;16.30;;;6.35;;
27746;SDS011;15138;51.012;4.692;2023-07-16T08:46:39;12.85;;;5.60;;
27746;SDS011;15138;51.012;4.692;2023-07-16T08:49:07;13.38;;;5.30;;
27746;SDS011;15138;51.012;4.692;2023-07-16T08:51:37;13.55;;;5.57;;
27746;SDS011;15138;51.012;4.692;2023-07-16T08:54:06;12.73;;;5.30;;
27746;SDS011;15138;51.012;4.692;2023-07-16T08:56:34;12.88;;;5.75;;
27746;SDS011;15138;51.012;4.692;2023-07-16T08:59:03;16.23;;;5.32;;
27746;SDS011;15138;51.012;4.692;2023-07-16T09:01:32;14.45;;;4.70;;
27746;SDS011;15138;51.012;4.692;2023-07-16T09:04:00;13.07;;;5.70;;
27746;SDS011;15138;51.012;4.692;2023-07-16T09:06:29;11.40;;;5.03;;
27746;SDS011;15138;51.012;4.692;2023-07-16T09:08:57;9.93;;;4.80;;
27746;SDS011;15138;51.012;4.692;2023-07-16T09:11:25;11.48;;;5.22;;
27746;SDS011;15138;51.012;4.692;2023-07-16T09:13:53;9.98;;;4.90;;
27746;SDS011;15138;51.012;4.692;2023-07-16T09:16:23;10.70;;;5.05;;
27746;SDS011;15138;51.012;4.692;2023-07-16T09:18:51;14.63;;;5.28;;
27746;SDS011;15138;51.012;4.692;2023-07-16T09:21:19;11.57;;;4.80;;
27746;SDS011;15138;51.012;4.692;2023-07-16T09:23:47;11.68;;;4.85;;
27746;SDS011;15138;51.012;4.692;2023-07-16T09:26:17;13.38;;;4.90;;
27746;SDS011;15138;51.012;4.692;2023-07-16T09:28:47;11.35;;;4.97;;
27746;SDS011;15138;51.012;4.692;2023-07-16T09:31:16;9.02;;;4.63;;
27746;SDS011;15138;51.012;4.692;2023-07-16T09:33:47;8.63;;;4.55;;
27746;SDS011;15138;51.012;4.692;2023-07-16T09:36:23;11.90;;;4.85;;
27746;SDS011;15138;51.012;4.692;2023-07-16T09:38:52;14.77;;;5.25;;
27746;SDS011;15138;51.012;4.692;2023-07-16T09:41:21;10.38;;;4.45;;
27746;SDS011;15138;51.012;4.692;2023-07-16T09:43:50;11.05;;;4.97;;
27746;SDS011;15138;51.012;4.692;2023-07-16T09:46:19;11.77;;;5.00;;
27746;SDS011;15138;51.012;4.692;2023-07-16T09:48:48;10.18;;;4.75;;
27746;SDS011;15138;51.012;4.692;2023-07-16T09:51:16;10.45;;;5.15;;
27746;SDS011;15138;51.012;4.692;2023-07-16T09:53:46;12.55;;;4.60;;
27746;SDS011;15138;51.012;4.692;2023-07-16T09:56:15;10.27;;;4.65;;
27746;SDS011;15138;51.012;4.692;2023-07-16T09:58:45;14.00;;;5.28;;
27746;SDS011;15138;51.012;4.692;2023-07-16T10:01:14;9.95;;;4.93;;
27746;SDS011;15138;51.012;4.692;2023-07-16T10:03:49;16.25;;;4.75;;
27746;SDS011;15138;51.012;4.692;2023-07-16T10:06:18;10.43;;;4.68;;
27746;SDS011;15138;51.012;4.692;2023-07-16T10:08:48;14.07;;;4.80;;
27746;SDS011;15138;51.012;4.692;2023-07-16T10:11:17;10.38;;;4.45;;
27746;SDS011;15138;51.012;4.692;2023-07-16T10:13:49;11.57;;;4.70;;
27746;SDS011;15138;51.012;4.692;2023-07-16T10:16:20;12.88;;;5.00;;
27746;SDS011;15138;51.012;4.692;2023-07-16T10:18:52;14.40;;;5.30;;
27746;SDS011;15138;51.012;4.692;2023-07-16T10:21:22;10.82;;;4.65;;
27746;SDS011;15138;51.012;4.692;2023-07-16T10:23:56;13.40;;;5.13;;
27746;SDS011;15138;51.012;4.692;2023-07-16T10:26:26;11.18;;;4.93;;
27746;SDS011;15138;51.012;4.692;2023-07-16T10:28:55;10.32;;;4.72;;
27746;SDS011;15138;51.012;4.692;2023-07-16T10:31:24;12.55;;;5.10;;
27746;SDS011;15138;51.012;4.692;2023-07-16T10:33:59;13.73;;;4.93;;
27746;SDS011;15138;51.012;4.692;2023-07-16T10:36:28;9.85;;;4.88;;
27746;SDS011;15138;51.012;4.692;2023-07-16T10:39:01;9.55;;;4.60;;
27746;SDS011;15138;51.012;4.692;2023-07-16T10:41:30;14.48;;;5.00;;
27746;SDS011;15138;51.012;4.692;2023-07-16T10:44:00;5.80;;;3.10;;
27746;SDS011;15138;51.012;4.692;2023-07-16T10:46:28;9.30;;;4.28;;
27746;SDS011;15138;51.012;4.692;2023-07-16T10:49:00;10.63;;;4.47;;
27746;SDS011;15138;51.012;4.692;2023-07-16T10:51:28;12.85;;;4.50;;
27746;SDS011;15138;51.012;4.692;2023-07-16T10:53:56;11.10;;;4.72;;
27746;SDS011;15138;51.012;4.692;2023-07-16T10:56:24;13.75;;;4.38;;
27746;SDS011;15138;51.012;4.692;2023-07-16T10:58:53;13.85;;;4.45;;
27746;SDS011;15138;51.012;4.692;2023-07-16T11:01:21;10.20;;;4.53;;
27746;SDS011;15138;51.012;4.692;2023-07-16T11:03:50;11.23;;;4.00;;
27746;SDS011;15138;51.012;4.692;2023-07-16T11:06:19;9.43;;;4.45;;
27746;SDS011;15138;51.012;4.692;2023-07-16T11:08:48;8.65;;;3.92;;
27746;SDS011;15138;51.012;4.692;2023-07-16T11:11:26;11.98;;;4.30;;
27746;SDS011;15138;51.012;4.692;2023-07-16T11:13:55;10.38;;;4.53;;
27746;SDS011;15138;51.012;4.692;2023-07-16T11:16:24;11.55;;;4.00;;
27746;SDS011;15138;51.012;4.692;2023-07-16T11:18:52;12.10;;;4.57;;
27746;SDS011;15138;51.012;4.692;2023-07-16T11:21:22;11.43;;;3.78;;
27746;SDS011;15138;51.012;4.692;2023-07-16T11:23:50;9.65;;;4.28;;
27746;SDS011;15138;51.012;4.692;2023-07-16T11:26:19;10.60;;;4.55;;
27746;SDS011;15138;51.012;4.692;2023-07-16T11:28:49;8.88;;;4.72;;
27746;SDS011;15138;51.012;4.692;2023-07-16T11:31:18;9.38;;;4.50;;
27746;SDS011;15138;51.012;4.692;2023-07-16T11:33:50;13.88;;;4.70;;
27746;SDS011;15138;51.012;4.692;2023-07-16T11:36:18;8.63;;;4.18;;
27746;SDS011;15138;51.012;4.692;2023-07-16T11:38:49;9.18;;;4.70;;
27746;SDS011;15138;51.012;4.692;2023-07-16T11:41:19;8.90;;;4.03;;
27746;SDS011;15138;51.012;4.692;2023-07-16T11:43:48;8.80;;;4.20;;
27746;SDS011;15138;51.012;4.692;2023-07-16T11:46:17;9.00;;;4.45;;
27746;SDS011;15138;51.012;4.692;2023-07-16T11:48:47;9.77;;;5.00;;
27746;SDS011;15138;51.012;4.692;2023-07-16T11:51:15;9.70;;;4.07;;
27746;SDS011;15138;51.012;4.692;2023-07-16T11:53:43;12.55;;;4.57;;
27746;SDS011;15138;51.012;4.692;2023-07-16T11:56:13;9.30;;;4.15;;
27746;SDS011;15138;51.012;4.692;2023-07-16T11:58:41;9.70;;;3.70;;
27746;SDS011;15138;51.012;4.692;2023-07-16T12:01:10;12.48;;;4.22;;
27746;SDS011;15138;51.012;4.692;2023-07-16T12:03:38;7.38;;;3.40;;
27746;SDS011;15138;51.012;4.692;2023-07-16T12:06:07;8.35;;;3.45;;
27746;SDS011;15138;51.012;4.692;2023-07-16T12:08:36;12.55;;;4.63;;
27746;SDS011;15138;51.012;4.692;2023-07-16T12:11:04;11.65;;;3.88;;
27746;SDS011;15138;51.012;4.692;2023-07-16T12:13:34;10.38;;;4.13;;
27746;SDS011;15138;51.012;4.692;2023-07-16T12:16:02;8.23;;;4.00;;
27746;SDS011;15138;51.012;4.692;2023-07-16T12:18:30;12.15;;;4.03;;
27746;SDS011;15138;51.012;4.692;2023-07-16T12:20:59;10.20;;;4.50;;
27746;SDS011;15138;51.012;4.692;2023-07-16T12:23:27;9.40;;;4.03;;
27746;SDS011;15138;51.012;4.692;2023-07-16T12:25:55;11.52;;;4.20;;
27746;SDS011;15138;51.012;4.692;2023-07-16T12:28:23;10.05;;;4.15;;
27746;SDS011;15138;51.012;4.692;2023-07-16T12:30:53;6.80;;;3.90;;
27746;SDS011;15138;51.012;4.692;2023-07-16T12:33:21;11.32;;;4.05;;
27746;SDS011;15138;51.012;4.692;2023-07-16T12:35:50;9.38;;;4.05;;
27746;SDS011;15138;51.012;4.692;2023-07-16T12:38:20;9.93;;;4.25;;
27746;SDS011;15138;51.012;4.692;2023-07-16T12:40:48;9.88;;;4.22;;
27746;SDS011;15138;51.012;4.692;2023-07-16T12:43:17;8.75;;;4.40;;
27746;SDS011;15138;51.012;4.692;2023-07-16T12:45:45;11.27;;;4.15;;
27746;SDS011;15138;51.012;4.692;2023-07-16T12:48:14;8.68;;;3.75;;
27746;SDS011;15138;51.012;4.692;2023-07-16T12:50:42;14.90;;;4.28;;
27746;SDS011;15138;51.012;4.692;2023-07-16T12:53:11;6.97;;;3.35;;
27746;SDS011;15138;51.012;4.692;2023-07-16T12:55:39;10.60;;;3.95;;
27746;SDS011;15138;51.012;4.692;2023-07-16T12:58:08;10.00;;;3.72;;
27746;SDS011;15138;51.012;4.692;2023-07-16T13:00:36;11.30;;;3.90;;
27746;SDS011;15138;51.012;4.692;2023-07-16T13:03:04;8.80;;;3.63;;
27746;SDS011;15138;51.012;4.692;2023-07-16T13:05:36;8.75;;;3.80;;
27746;SDS011;15138;51.012;4.692;2023-07-16T13:08:04;9.18;;;3.60;;
27746;SDS011;15138;51.012;4.692;2023-07-16T13:10:32;9.77;;;3.65;;
27746;SDS011;15138;51.012;4.692;2023-07-16T13:13:00;8.98;;;3.70;;
27746;SDS011;15138;51.012;4.692;2023-07-16T13:15:29;10.90;;;3.67;;
27746;SDS011;15138;51.012;4.692;2023-07-16T13:17:58;9.25;;;3.53;;
27746;SDS011;15138;51.012;4.692;2023-07-16T13:20:26;11.98;;;3.97;;
27746;SDS011;15138;51.012;4.692;2023-07-16T13:22:57;11.52;;;4.00;;
27746;SDS011;15138;51.012;4.692;2023-07-16T13:25:26;10.27;;;3.90;;
27746;SDS011;15138;51.012;4.692;2023-07-16T13:27:57;8.55;;;3.83;;
27746;SDS011;15138;51.012;4.692;2023-07-16T13:30:25;10.25;;;3.88;;
27746;SDS011;15138;51.012;4.692;2023-07-16T13:32:53;6.70;;;3.45;;
27746;SDS011;15138;51.012;4.692;2023-07-16T13:35:22;9.82;;;3.85;;
27746;SDS011;15138;51.012;4.692;2023-07-16T13:37:51;10.30;;;3.65;;
27746;SDS011;15138;51.012;4.692;2023-07-16T13:40:20;8.13;;;3.30;;
27746;SDS011;15138;51.012;4.692;2023-07-16T13:42:48;10.30;;;4.03;;
27746;SDS011;15138;51.012;4.692;2023-07-16T13:45:17;7.45;;;3.63;;
27746;SDS011;15138;51.012;4.692;2023-07-16T13:47:45;10.20;;;3.75;;
27746;SDS011;15138;51.012;4.692;2023-07-16T13:50:14;6.35;;;3.10;;
27746;SDS011;15138;51.012;4.692;2023-07-16T13:52:42;10.27;;;3.55;;
27746;SDS011;15138;51.012;4.692;2023-07-16T13:55:10;7.18;;;3.25;;
27746;SDS011;15138;51.012;4.692;2023-07-16T13:57:40;6.15;;;2.90;;
27746;SDS011;15138;51.012;4.692;2023-07-16T14:00:09;9.32;;;3.22;;
27746;SDS011;15138;51.012;4.692;2023-07-16T14:02:39;7.15;;;3.30;;
27746;SDS011;15138;51.012;4.692;2023-07-16T14:05:07;6.47;;;3.05;;
27746;SDS011;15138;51.012;4.692;2023-07-16T14:07:35;10.95;;;3.30;;
27746;SDS011;15138;51.012;4.692;2023-07-16T14:10:04;7.15;;;2.58;;
27746;SDS011;15138;51.012;4.692;2023-07-16T14:12:35;7.63;;;2.70;;
27746;SDS011;15138;51.012;4.692;2023-07-16T14:15:05;6.05;;;2.85;;
27746;SDS011;15138;51.012;4.692;2023-07-16T14:17:34;7.53;;;2.50;;
27746;SDS011;15138;51.012;4.692;2023-07-16T14:20:02;4.60;;;2.25;;
27746;SDS011;15138;51.012;4.692;2023-07-16T14:22:31;4.25;;;2.30;;
27746;SDS011;15138;51.012;4.692;2023-07-16T14:24:59;4.90;;;2.30;;
27746;SDS011;15138;51.012;4.692;2023-07-16T14:27:27;4.68;;;2.00;;
27746;SDS011;15138;51.012;4.692;2023-07-16T14:29:55;6.47;;;2.05;;
27746;SDS011;15138;51.012;4.692;2023-07-16T14:32:33;6.82;;;2.08;;
27746;SDS011;15138;51.012;4.692;2023-07-16T14:35:02;3.97;;;2.10;;
27746;SDS011;15138;51.012;4.692;2023-07-16T14:37:31;5.68;;;2.00;;
27746;SDS011;15138;51.012;4.692;2023-07-16T14:39:59;5.03;;;2.10;;
27746;SDS011;15138;51.012;4.692;2023-07-16T14:42:27;7.13;;;2.90;;
27746;SDS011;15138;51.012;4.692;2023-07-16T14:44:55;7.47;;;2.45;;
27746;SDS011;15138;51.012;4.692;2023-07-16T14:47:23;7.88;;;2.45;;
27746;SDS011;15138;51.012;4.692;2023-07-16T14:49:53;6.35;;;2.58;;
27746;SDS011;15138;51.012;4.692;2023-07-16T14:52:21;5.85;;;2.15;;
27746;SDS011;15138;51.012;4.692;2023-07-16T14:54:50;5.85;;;2.50;;